createdAt,value
2022-07-30T00:11:45.956Z,24.25
2022-07-30T00:41:01.650Z,23.68
2022-07-30T01:10:09.714Z,22.57
2022-07-30T01:39:27.063Z,22.55
2022-07-30T02:08:29.091Z,21.58
2022-07-30T02:37:45.418Z,21.25
2022-07-30T03:07:08.837Z,20.86
2022-07-30T03:35:40.377Z,20.78
2022-07-30T04:04:49.780Z,20.43
2022-07-30T04:34:07.710Z,20.61
2022-07-30T05:03:21.117Z,20.59
2022-07-30T05:32:32.618Z,21.16
2022-07-30T06:01:28.900Z,22.05
2022-07-30T06:30:44.156Z,23.51
2022-07-30T06:59:59.813Z,24.78
2022-07-30T07:29:17.812Z,25.62
2022-07-30T07:58:40.806Z,26.42
2022-07-30T08:27:43.054Z,27.08
2022-07-30T08:56:49.263Z,28.3
2022-07-30T09:26:11.089Z,29.2
2022-07-30T09:55:26.828Z,29.55
2022-07-30T10:24:40.019Z,29.22
2022-07-30T10:54:11.951Z,29.48
2022-07-30T11:23:03.941Z,31.09
2022-07-30T11:51:53.129Z,30.58
2022-07-30T12:21:02.512Z,30.46
2022-07-30T12:50:23.922Z,30.64
2022-07-30T13:19:32.022Z,31.23
2022-07-30T13:48:49.586Z,32.93
2022-07-30T14:17:56.881Z,32.82
2022-07-30T14:46:34.627Z,32.95
2022-07-30T15:15:47.939Z,31.94
2022-07-30T15:45:01.357Z,32.55
2022-07-30T16:13:33.796Z,32.58
2022-07-30T16:42:55.801Z,33
2022-07-30T17:12:13.323Z,33.92
2022-07-30T17:40:53.545Z,34.01
2022-07-30T18:10:12.509Z,32.55
2022-07-30T18:39:22.466Z,30.6
2022-07-30T19:08:40.342Z,29.97
2022-07-30T19:37:52.165Z,29.39
2022-07-30T20:07:11.084Z,28.68
2022-07-30T20:36:04.962Z,27.86
2022-07-30T21:05:20.484Z,27.22
2022-07-30T21:34:35.394Z,27.1
2022-07-30T22:04:01.305Z,27.22
2022-07-30T22:31:50.395Z,26.79
2022-07-30T23:00:51.502Z,25.22
2022-07-30T23:30:01.361Z,24.96
2022-07-30T23:59:21.583Z,24.38
